KMSY/MSY METAR and TAF weather

Enter ICAO airport designator
Station Type Date Time Source
KMSY METAR 2020/01/26 00:53 UTC NOAA

KMSY 260053Z 18005KT 10SM FEW095 BKN250 14/03 A3018 RMK AO2 SLP222 T01390028


Station Type Date Time Source
KMSY Decoded METAR 2020/01/26 00:53 UTC NOAA

NEW ORLEANS INTERNATIONAL AIRPORT, LA, United States (KMSY) 30-00N 90-15W 5M
Jan 25, 2020 - 07:53 PM EST / 2020.01.26 0053 UTC
Wind: from the S (180 degrees) at 6 MPH (5 KT):0
Visibility: 10 mile(s):0
Sky conditions: mostly cloudy
Temperature: 57.0 F (13.9 C)
Dew Point: 37.0 F (2.8 C)
Relative Humidity: 47%
Pressure (altimeter): 30.18 in. Hg (1022 hPa)
ob: KMSY 260053Z 18005KT 10SM FEW095 BKN250 14/03 A3018 RMK AO2 SLP222 T01390028
cycle: 1

Station Type Date Time Source
KMSY TAF 2020/01/25 18:42 UTC NOAA

TAF KMSY 251740Z 2518/2624 03006KT P6SM SKC
FM261500 13010KT P6SM -SHRA OVC050
FM261800 14010KT P6SM -SHRA OVC020
FM262000 14010KT P6SM -SHRA OVC006

Example: see airport list